Time;durP1;ratioP1;P1;durP2;ratioP2;P2;SDS_P1;SDS_P2;PMS_P1;PMS_P2;Temp;Humidity;BMP_temperature;BMP_pressure;BME280_temperature;BME280_humidity;BME280_pressure;Samples;Min_cycle;Max_cycle;Signal;HPM_P1;HPM_P2
2021/12/18 00:00:30;;;;;;;30.93;15.90;;;;;;;;;;5019625;28;20352;-87
2021/12/18 00:02:55;;;;;;;34.50;16.93;;;4.00;99.90;;;;;;5025430;28;20456;-87
2021/12/18 00:05:22;;;;;;;35.00;17.27;;;3.90;99.90;;;;;;5005608;28;20483;-87
2021/12/18 00:07:47;;;;;;;31.33;17.45;;;5.00;99.90;;;;;;5024811;28;20181;-87
2021/12/18 00:10:13;;;;;;;38.63;18.00;;;;;;;;;;5027666;28;20193;-87
2021/12/18 00:12:47;;;;;;;38.47;17.90;;;3.90;99.90;;;;;;5019450;28;20198;-88
2021/12/18 00:15:13;;;;;;;39.63;16.20;;;4.00;99.90;;;;;;5021183;28;20189;-87
2021/12/18 00:17:38;;;;;;;34.30;18.00;;;3.90;99.90;;;;;;5006112;28;20193;-88
2021/12/18 00:20:04;;;;;;;35.50;18.83;;;3.90;99.90;;;;;;5010600;28;20188;-87
2021/12/18 00:22:30;;;;;;;30.67;17.27;;;4.10;99.90;;;;;;5004625;28;20273;-87
2021/12/18 00:24:56;;;;;;;32.33;16.43;;;4.10;99.90;;;;;;5005492;28;22635;-88
2021/12/18 00:27:21;;;;;;;36.90;16.57;;;4.20;99.90;;;;;;5002959;28;20211;-87
2021/12/18 00:29:47;;;;;;;31.77;19.07;;;4.30;99.90;;;;;;5026514;28;20189;-89
2021/12/18 00:32:13;;;;;;;31.37;16.23;;;4.20;99.90;;;;;;5007233;28;21441;-88
2021/12/18 00:34:39;;;;;;;33.38;16.77;;;4.20;99.90;;;;;;5009948;28;20209;-88
2021/12/18 00:37:05;;;;;;;33.33;16.88;;;4.30;99.90;;;;;;5007745;28;20204;-88
2021/12/18 00:39:32;;;;;;;34.77;16.57;;;;;;;;;;5017598;28;20711;-87
2021/12/18 00:44:43;;;;;;;32.53;14.90;;;4.10;99.90;;;;;;5029518;28;20216;-88
2021/12/18 00:47:08;;;;;;;33.40;16.00;;;4.20;99.90;;;;;;5000778;28;20182;-88
2021/12/18 00:49:34;;;;;;;33.80;15.87;;;4.20;99.90;;;;;;5024708;28;20190;-88
2021/12/18 00:52:00;;;;;;;30.77;17.40;;;;;;;;;;5020344;28;20185;-89
2021/12/18 00:54:27;;;;;;;30.63;16.10;;;;;;;;;;5019944;28;20452;-88
2021/12/18 00:56:53;;;;;;;30.65;16.15;;;4.10;99.90;;;;;;5015421;28;20437;-88
2021/12/18 00:59:19;;;;;;;32.43;17.23;;;;;;;;;;5027374;28;20209;-88
2021/12/18 01:01:46;;;;;;;29.90;16.75;;;4.00;99.90;;;;;;5011614;28;20193;-88
2021/12/18 01:04:12;;;;;;;32.42;15.45;;;4.00;99.90;;;;;;5006547;28;20225;-87
2021/12/18 01:06:38;;;;;;;28.93;15.20;;;4.00;99.90;;;;;;5029155;28;20729;-86
2021/12/18 01:09:04;;;;;;;31.70;15.37;;;3.90;99.90;;;;;;5028230;28;20197;-88
2021/12/18 01:11:43;;;;;;;31.10;16.88;;;3.90;99.90;;;;;;5013569;28;20534;-87
2021/12/18 01:14:42;;;;;;;36.08;15.95;;;3.80;99.90;;;;;;5028493;28;20209;-87
2021/12/18 01:25:07;;;;;;;27.23;14.57;;;3.70;99.90;;;;;;5040876;28;20213;-88
2021/12/18 01:27:33;;;;;;;30.08;15.70;;;;;;;;;;5008492;28;20241;-87
2021/12/18 01:29:59;;;;;;;32.67;14.97;;;;;;;;;;5035575;28;20269;-87
2021/12/18 01:32:26;;;;;;;30.70;16.00;;;;;;;;;;5027777;28;20927;-87
2021/12/18 01:34:52;;;;;;;30.25;14.70;;;3.70;99.90;;;;;;5036332;28;20442;-87
2021/12/18 01:37:20;;;;;;;32.40;15.83;;;;;;;;;;5022660;28;20197;-88
2021/12/18 01:39:46;;;;;;;29.60;14.85;;;3.60;99.90;;;;;;5023654;28;20173;-88
2021/12/18 01:52:34;;;;;;;30.35;16.02;;;3.80;99.90;;;;;;5033872;28;20231;-87
2021/12/18 01:55:00;;;;;;;27.87;15.20;;;;;;;;;;5032653;28;20193;-88
2021/12/18 01:57:26;;;;;;;29.88;15.93;;;3.70;99.90;;;;;;5029220;28;20196;-87
2021/12/18 01:59:52;;;;;;;31.57;15.80;;;;;;;;;;5031353;28;20182;-88
2021/12/18 02:02:18;;;;;;;34.85;14.55;;;3.60;99.90;;;;;;5017547;28;20436;-88
2021/12/18 02:04:44;;;;;;;33.45;17.27;;;3.60;99.90;;;;;;5003807;28;20201;-88
2021/12/18 02:07:10;;;;;;;33.60;16.15;;;3.50;99.90;;;;;;5004952;28;20178;-88
2021/12/18 02:12:09;;;;;;;33.97;16.25;;;3.60;99.90;;;;;;5032751;28;20186;-88
2021/12/18 02:22:58;;;;;;;31.60;15.10;;;3.50;99.90;;;;;;5026861;28;20220;-87
2021/12/18 02:25:25;;;;;;;36.90;19.17;;;3.50;99.90;;;;;;5028903;28;20201;-87
2021/12/18 02:27:52;;;;;;;30.73;15.13;;;3.40;99.90;;;;;;5033468;28;20178;-88
2021/12/18 02:30:21;;;;;;;27.23;15.38;;;3.40;99.90;;;;;;5013905;28;21175;-88
2021/12/18 02:32:48;;;;;;;33.90;14.63;;;3.40;99.90;;;;;;5014384;28;20791;-88
2021/12/18 02:35:30;;;;;;;31.33;15.52;;;3.40;99.90;;;;;;5015188;28;20186;-88
2021/12/18 02:38:08;;;;;;;35.55;14.57;;;3.40;99.90;;;;;;5019306;28;20253;-88
2021/12/18 02:43:21;;;;;;;35.67;15.70;;;3.40;99.90;;;;;;5029445;28;22348;-89
2021/12/18 02:45:47;;;;;;;31.70;15.88;;;3.30;99.90;;;;;;5012459;28;20211;-87
2021/12/18 02:48:13;;;;;;;39.00;15.17;;;3.40;99.90;;;;;;5025019;28;20177;-88
2021/12/18 02:50:39;;;;;;;30.17;14.00;;;3.30;99.90;;;;;;5011000;28;20181;-87
2021/12/18 02:53:06;;;;;;;35.28;16.00;;;3.30;99.90;;;;;;5020624;28;20208;-87
2021/12/18 02:55:32;;;;;;;28.25;14.43;;;3.40;99.90;;;;;;5025619;28;20185;-88
2021/12/18 02:57:57;;;;;;;34.73;17.97;;;3.30;99.90;;;;;;5031248;28;20184;-88
2021/12/18 03:00:25;;;;;;;34.10;14.27;;;;;;;;;;5032843;28;20192;-88
2021/12/18 03:02:51;;;;;;;28.27;13.95;;;3.30;99.90;;;;;;5030085;28;20206;-88
2021/12/18 03:05:25;;;;;;;27.63;13.47;;;;;;;;;;5015425;28;20292;-87
2021/12/18 03:07:57;;;;;;;24.60;13.30;;;3.30;99.90;;;;;;5009647;28;20182;-87
2021/12/18 03:24:54;;;;;;;32.95;14.95;;;3.30;99.90;;;;;;5028348;28;20567;-87
2021/12/18 03:26:43;;;;;;;27.65;14.10;;;4.00;99.90;;;;;;5011771;28;20745;-87
2021/12/18 03:29:09;;;;;;;35.07;14.73;;;;;;;;;;5027575;28;20260;-88
2021/12/18 03:31:35;;;;;;;31.50;15.30;;;3.30;99.90;;;;;;5030915;28;20178;-87
2021/12/18 03:34:01;;;;;;;37.03;14.73;;;3.30;99.90;;;;;;5015165;28;22280;-87
2021/12/18 03:36:27;;;;;;;34.20;16.53;;;3.40;99.90;;;;;;5014365;28;20258;-88
2021/12/18 03:38:52;;;;;;;34.23;16.47;;;;;;;;;;5014811;28;20561;-88
2021/12/18 03:41:18;;;;;;;33.50;14.77;;;;;;;;;;5029006;28;20209;-87
2021/12/18 03:43:44;;;;;;;30.50;15.00;;;3.30;99.90;;;;;;5031083;28;20467;-87
2021/12/18 03:46:10;;;;;;;26.50;14.00;;;3.30;99.90;;;;;;5023206;28;20563;-88
2021/12/18 03:48:36;;;;;;;35.10;17.43;;;;;;;;;;5027797;28;20174;-87
2021/12/18 03:51:01;;;;;;;27.08;15.10;;;3.30;99.90;;;;;;5040333;28;20182;-87
2021/12/18 03:53:27;;;;;;;28.60;15.80;;;;;;;;;;5036866;28;20220;-88
2021/12/18 03:55:53;;;;;;;35.80;15.13;;;;;;;;;;5027313;28;20251;-88
2021/12/18 03:58:19;;;;;;;30.53;13.87;;;3.30;99.90;;;;;;5017631;28;20462;-88
2021/12/18 04:00:44;;;;;;;27.73;12.83;;;3.30;99.90;;;;;;5030781;28;20447;-88
2021/12/18 04:03:10;;;;;;;24.13;12.70;;;3.20;99.90;;;;;;5015358;28;20204;-88
2021/12/18 04:05:35;;;;;;;34.90;14.53;;;3.20;99.90;;;;;;5006616;28;20201;-87
2021/12/18 04:08:08;;;;;;;36.40;15.33;;;3.20;99.90;;;;;;5016115;28;20182;-88
2021/12/18 04:10:36;;;;;;;31.55;14.07;;;3.20;99.90;;;;;;5033554;28;20181;-88
2021/12/18 04:13:03;;;;;;;32.88;15.40;;;3.20;99.90;;;;;;5032048;28;20205;-88
2021/12/18 04:15:29;;;;;;;35.13;16.38;;;;;;;;;;5020338;28;20186;-87
2021/12/18 04:17:54;;;;;;;26.17;13.75;;;3.20;99.90;;;;;;5025007;28;20224;-88
2021/12/18 04:20:20;;;;;;;36.50;14.70;;;3.20;99.90;;;;;;5038629;28;20295;-87
2021/12/18 04:22:46;;;;;;;31.10;15.60;;;;;;;;;;5022084;28;20205;-87
2021/12/18 04:25:12;;;;;;;35.88;14.00;;;3.20;99.90;;;;;;5022954;28;20209;-89
2021/12/18 04:27:38;;;;;;;34.00;16.75;;;3.20;99.90;;;;;;5033298;28;20185;-88
2021/12/18 04:30:04;;;;;;;33.30;15.37;;;3.20;99.90;;;;;;5033566;28;20182;-88
2021/12/18 04:32:29;;;;;;;29.25;14.18;;;3.20;99.90;;;;;;5010745;28;20181;-88
2021/12/18 04:34:55;;;;;;;32.80;14.90;;;3.20;99.90;;;;;;5039359;28;20612;-88
2021/12/18 04:37:21;;;;;;;36.80;15.47;;;3.20;99.90;;;;;;5039450;28;20190;-88
2021/12/18 04:39:47;;;;;;;28.95;13.02;;;3.30;99.90;;;;;;5033959;28;20181;-87
2021/12/18 04:42:12;;;;;;;29.37;12.20;;;3.20;99.90;;;;;;5035900;28;20178;-87
2021/12/18 04:44:38;;;;;;;25.37;11.90;;;3.10;99.90;;;;;;5036440;28;20209;-87
2021/12/18 04:47:04;;;;;;;29.63;13.07;;;;;;;;;;5016365;28;20192;-87
2021/12/18 04:49:30;;;;;;;30.53;15.27;;;;;;;;;;5021053;28;20180;-88
2021/12/18 04:51:56;;;;;;;30.40;12.50;;;;;;;;;;5037903;28;20987;-87
2021/12/18 04:54:22;;;;;;;32.50;13.57;;;;;;;;;;5030487;28;20445;-86
2021/12/18 04:56:47;;;;;;;33.38;14.15;;;2.80;99.90;;;;;;5033944;28;20420;-86
2021/12/18 04:59:13;;;;;;;35.50;16.10;;;2.80;99.90;;;;;;5033067;28;20194;-87
2021/12/18 05:01:40;;;;;;;33.67;13.73;;;;;;;;;;5031632;28;20185;-88
2021/12/18 05:04:09;;;;;;;33.65;14.27;;;2.70;99.90;;;;;;5013657;28;20209;-87
2021/12/18 05:06:37;;;;;;;32.75;15.23;;;2.80;99.90;;;;;;5034921;28;20172;-87
2021/12/18 05:09:04;;;;;;;34.45;16.45;;;2.80;99.90;;;;;;5029554;28;20185;-87
2021/12/18 05:11:29;;;;;;;33.20;15.35;;;2.90;99.90;;;;;;5013888;28;20189;-87
2021/12/18 05:13:55;;;;;;;36.90;15.03;;;;;;;;;;5012752;28;20193;-87
2021/12/18 05:16:21;;;;;;;35.37;15.03;;;3.00;99.90;;;;;;5020270;28;20182;-87
2021/12/18 05:18:46;;;;;;;35.33;15.00;;;3.00;99.90;;;;;;5012445;28;20460;-87
2021/12/18 05:21:13;;;;;;;33.73;14.90;;;;;;;;;;5012355;28;20265;-86
2021/12/18 05:23:38;;;;;;;28.48;15.15;;;3.10;99.90;;;;;;5020971;28;20208;-87
2021/12/18 05:26:04;;;;;;;33.20;15.67;;;3.10;99.90;;;;;;5014120;28;20201;-87
2021/12/18 05:28:29;;;;;;;35.97;17.10;;;;;;;;;;5011928;28;20178;-87
2021/12/18 05:30:55;;;;;;;35.80;15.37;;;3.10;99.90;;;;;;5030289;28;20240;-86
2021/12/18 05:33:21;;;;;;;34.20;15.50;;;;;;;;;;5001369;28;20476;-88
2021/12/18 05:35:47;;;;;;;32.63;15.17;;;;;;;;;;5028507;28;20197;-88
2021/12/18 05:38:13;;;;;;;30.40;13.98;;;;;;;;;;5019086;28;20482;-87
2021/12/18 05:40:39;;;;;;;29.23;15.70;;;;;;;;;;5017334;28;20186;-87
2021/12/18 05:43:07;;;;;;;31.15;14.10;;;3.10;99.90;;;;;;5027448;28;20976;-86
2021/12/18 05:45:33;;;;;;;30.85;14.13;;;3.10;99.90;;;;;;5026816;28;20225;-88
2021/12/18 05:47:58;;;;;;;40.95;15.70;;;3.20;99.90;;;;;;4999973;28;20216;-88
2021/12/18 05:50:27;;;;;;;43.13;19.77;;;;;;;;;;5025349;28;20210;-88
2021/12/18 05:52:54;;;;;;;29.80;14.07;;;3.20;99.90;;;;;;5037816;28;20198;-88
2021/12/18 05:55:23;;;;;;;32.53;15.95;;;3.30;99.90;;;;;;5043965;28;20178;-88
2021/12/18 05:57:49;;;;;;;38.35;16.77;;;;;;;;;;5020401;28;20189;-88
2021/12/18 06:00:15;;;;;;;30.58;14.30;;;3.40;99.90;;;;;;5037287;28;20186;-88
2021/12/18 06:02:41;;;;;;;32.80;15.30;;;3.50;99.90;;;;;;5014963;28;20301;-87
2021/12/18 06:05:07;;;;;;;37.37;15.93;;;3.50;99.90;;;;;;5021298;28;20873;-88
2021/12/18 06:10:31;;;;;;;32.60;13.57;;;3.60;99.90;;;;;;5013297;28;20276;-87
2021/12/18 06:12:59;;;;;;;34.92;13.80;;;3.50;99.90;;;;;;5036315;28;20202;-87
2021/12/18 06:15:25;;;;;;;34.03;14.63;;;3.50;99.90;;;;;;5017411;28;20206;-87
2021/12/18 06:17:53;;;;;;;34.13;12.77;;;3.50;99.90;;;;;;5029211;28;20632;-86
2021/12/18 06:20:18;;;;;;;27.25;13.07;;;3.40;99.90;;;;;;5030301;28;20193;-87
2021/12/18 06:22:44;;;;;;;31.67;14.50;;;3.40;99.90;;;;;;5011179;28;20210;-88
2021/12/18 06:25:10;;;;;;;32.67;14.63;;;3.40;99.90;;;;;;5018912;28;20212;-87
2021/12/18 06:27:36;;;;;;;28.00;12.80;;;;;;;;;;5032806;28;20193;-88
2021/12/18 06:30:03;;;;;;;35.30;15.13;;;3.30;99.90;;;;;;5019304;28;20190;-88
2021/12/18 06:32:28;;;;;;;25.63;13.50;;;3.30;99.90;;;;;;5028829;28;20211;-87
2021/12/18 06:34:54;;;;;;;32.20;14.30;;;3.30;99.90;;;;;;5012007;28;20182;-87
2021/12/18 06:37:20;;;;;;;33.80;15.63;;;;;;;;;;5027830;28;20192;-88
2021/12/18 06:39:46;;;;;;;32.67;16.20;;;;;;;;;;5020468;28;20192;-87
2021/12/18 06:42:12;;;;;;;30.05;16.77;;;;;;;;;;5029735;28;20448;-87
2021/12/18 06:44:37;;;;;;;35.83;16.30;;;3.50;99.90;;;;;;5038062;28;20217;-87
2021/12/18 06:47:03;;;;;;;37.90;20.73;;;3.60;99.90;;;;;;5032095;28;20462;-87
2021/12/18 06:49:29;;;;;;;33.50;16.30;;;;;;;;;;5017024;28;20827;-86
2021/12/18 06:51:54;;;;;;;38.73;16.73;;;3.70;99.90;;;;;;5017565;28;20186;-88
2021/12/18 06:54:20;;;;;;;42.70;24.20;;;;;;;;;;5012873;28;20459;-88
2021/12/18 06:56:46;;;;;;;36.38;18.00;;;3.80;99.90;;;;;;5032650;28;20763;-88
2021/12/18 06:59:12;;;;;;;55.40;29.00;;;3.90;99.90;;;;;;5015266;28;20186;-87
2021/12/18 07:01:37;;;;;;;86.07;42.40;;;3.80;99.90;;;;;;5015944;28;20201;-87
2021/12/18 07:04:03;;;;;;;60.33;26.97;;;;;;;;;;5033826;28;20265;-86
2021/12/18 07:06:29;;;;;;;38.57;18.90;;;3.80;99.90;;;;;;5013527;28;20228;-88
2021/12/18 07:08:55;;;;;;;39.97;20.00;;;;;;;;;;5029394;28;20521;-88
2021/12/18 07:11:20;;;;;;;56.63;30.47;;;4.00;99.90;;;;;;5014820;28;20248;-87
2021/12/18 07:13:46;;;;;;;71.10;34.67;;;4.00;99.90;;;;;;5010091;28;20464;-87
2021/12/18 07:16:11;;;;;;;32.03;15.50;;;4.00;99.90;;;;;;5027369;28;20192;-86
2021/12/18 07:18:37;;;;;;;33.47;15.77;;;;;;;;;;5026504;28;20203;-87
2021/12/18 07:21:03;;;;;;;33.03;16.20;;;;;;;;;;5012018;28;20664;-87
2021/12/18 07:23:29;;;;;;;40.60;18.48;;;4.10;99.90;;;;;;5008638;28;20552;-87
2021/12/18 07:25:55;;;;;;;35.83;16.83;;;;;;;;;;5001344;28;20225;-86
2021/12/18 07:28:21;;;;;;;50.33;27.23;;;;;;;;;;5021236;28;20670;-88
2021/12/18 07:30:47;;;;;;;36.10;19.33;;;;;;;;;;5015185;28;20415;-88
2021/12/18 07:33:13;;;;;;;34.00;15.60;;;4.20;99.90;;;;;;5032777;28;20444;-87
2021/12/18 07:35:40;;;;;;;33.87;15.33;;;4.20;99.90;;;;;;5011437;28;20227;-87
2021/12/18 07:38:06;;;;;;;35.47;16.83;;;4.30;99.90;;;;;;5027754;28;20566;-87
2021/12/18 07:40:32;;;;;;;36.13;17.17;;;4.20;99.90;;;;;;5011532;28;20224;-87
2021/12/18 07:42:58;;;;;;;32.55;14.88;;;4.20;99.90;;;;;;5034932;28;21101;-87
2021/12/18 07:45:24;;;;;;;36.07;16.17;;;;;;;;;;5026585;28;20220;-86
2021/12/18 07:47:49;;;;;;;38.97;17.90;;;4.20;99.90;;;;;;5017471;28;20185;-87
2021/12/18 07:50:20;;;;;;;36.63;16.20;;;;;;;;;;5029712;28;20512;-88
2021/12/18 07:52:47;;;;;;;29.30;13.20;;;4.20;99.90;;;;;;5026406;28;20204;-87
2021/12/18 07:55:36;;;;;;;30.90;14.50;;;4.20;99.90;;;;;;5032657;28;21181;-87
2021/12/18 07:58:02;;;;;;;26.55;13.70;;;;;;;;;;5043041;28;20199;-88
2021/12/18 08:00:28;;;;;;;29.50;14.85;;;;;;;;;;5012343;28;20237;-86
2021/12/18 08:02:54;;;;;;;35.93;14.40;;;;;;;;;;5058699;28;20213;-86
2021/12/18 08:05:20;;;;;;;26.60;13.57;;;;;;;;;;5040694;28;20537;-87
2021/12/18 08:07:46;;;;;;;24.13;12.05;;;4.20;99.90;;;;;;5039986;28;20493;-87
2021/12/18 08:10:12;;;;;;;32.10;14.13;;;;;;;;;;5022652;28;20181;-85
2021/12/18 08:12:37;;;;;;;32.05;14.15;;;4.00;99.90;;;;;;5034727;28;20446;-87
2021/12/18 08:15:04;;;;;;;22.60;12.50;;;4.00;99.90;;;;;;5051392;28;20190;-86
2021/12/18 08:17:30;;;;;;;27.70;12.52;;;4.00;99.90;;;;;;5031468;28;20842;-86
2021/12/18 08:19:56;;;;;;;28.30;12.17;;;;;;;;;;5020494;28;20185;-88
2021/12/18 08:22:21;;;;;;;26.03;13.43;;;4.20;99.90;;;;;;5013812;28;20181;-87
2021/12/18 08:24:47;;;;;;;27.93;13.73;;;6.10;99.90;;;;;;5015591;28;20471;-88
2021/12/18 08:27:13;;;;;;;29.10;13.57;;;;;;;;;;5036370;28;20178;-86
2021/12/18 08:29:38;;;;;;;28.83;12.65;;;4.20;99.90;;;;;;5035354;28;20607;-87
2021/12/18 08:32:04;;;;;;;23.03;12.40;;;4.20;99.90;;;;;;5030109;28;20243;-87
2021/12/18 08:34:30;;;;;;;24.93;12.17;;;;;;;;;;5010083;28;20205;-87
2021/12/18 08:36:56;;;;;;;31.83;16.33;;;;;;;;;;5029578;28;21057;-86
2021/12/18 08:39:22;;;;;;;26.40;12.17;;;;;;;;;;5015668;28;20448;-85
2021/12/18 08:41:48;;;;;;;32.10;16.27;;;;;;;;;;5029682;28;20515;-85
2021/12/18 08:44:14;;;;;;;33.75;12.70;;;4.30;99.90;;;;;;5030384;28;20471;-85
2021/12/18 08:46:40;;;;;;;24.97;11.57;;;;;;;;;;5014292;28;20650;-86
2021/12/18 08:49:07;;;;;;;34.28;15.90;;;4.30;99.90;;;;;;5019286;28;20262;-87
2021/12/18 08:51:35;;;;;;;27.42;12.05;;;3.20;99.90;;;;;;5002586;28;20174;-88
2021/12/18 08:54:00;;;;;;;31.60;15.52;;;4.30;99.90;;;;;;5034080;28;20677;-86
2021/12/18 08:56:26;;;;;;;34.50;13.13;;;4.40;99.90;;;;;;5016997;28;20189;-86
2021/12/18 08:58:53;;;;;;;29.60;13.97;;;4.40;99.90;;;;;;5012848;28;20177;-86
2021/12/18 09:01:21;;;;;;;29.35;12.43;;;4.40;99.90;;;;;;5009556;28;20185;-87
2021/12/18 09:03:47;;;;;;;27.48;13.55;;;4.30;99.90;;;;;;5012484;28;20209;-86
2021/12/18 09:06:13;;;;;;;32.33;14.20;;;4.20;99.90;;;;;;5027633;28;20190;-86
2021/12/18 09:08:39;;;;;;;28.10;13.37;;;;;;;;;;5005093;28;20204;-86
2021/12/18 09:11:05;;;;;;;31.33;13.30;;;4.20;99.90;;;;;;5015152;28;20235;-88
2021/12/18 09:13:30;;;;;;;24.07;11.57;;;4.00;99.90;;;;;;5019931;28;20198;-87
2021/12/18 09:15:56;;;;;;;23.83;13.67;;;4.20;99.90;;;;;;5018894;28;20202;-86
2021/12/18 09:18:22;;;;;;;30.90;12.90;;;4.10;99.90;;;;;;5017186;28;20208;-86
2021/12/18 09:20:47;;;;;;;30.20;14.33;;;4.10;99.90;;;;;;5024808;28;20189;-87
2021/12/18 09:23:16;;;;;;;31.57;12.10;;;;;;;;;;5015056;28;20289;-85
2021/12/18 09:25:42;;;;;;;28.17;12.07;;;4.10;99.90;;;;;;5034123;28;20201;-86
2021/12/18 09:28:08;;;;;;;31.25;13.52;;;4.00;99.90;;;;;;5012345;28;20242;-86
2021/12/18 09:30:34;;;;;;;22.67;11.60;;;4.10;99.90;;;;;;5023567;28;20249;-88
2021/12/18 09:33:00;;;;;;;21.57;10.63;;;;;;;;;;5020265;28;20448;-86
2021/12/18 09:35:26;;;;;;;26.13;12.10;;;4.00;99.90;;;;;;5034457;28;20514;-85
2021/12/18 09:37:52;;;;;;;15.48;8.57;;;4.00;99.90;;;;;;5014758;28;20455;-87
2021/12/18 09:40:19;;;;;;;22.07;10.17;;;;;;;;;;5015290;28;20198;-86
2021/12/18 09:42:46;;;;;;;18.33;9.82;;;4.00;99.90;;;;;;5005441;28;20201;-85
2021/12/18 09:45:14;;;;;;;25.63;12.10;;;4.10;99.90;;;;;;5008269;28;20236;-85
2021/12/18 09:47:41;;;;;;;23.48;12.13;;;4.10;99.90;;;;;;5011386;28;20220;-85
2021/12/18 09:50:08;;;;;;;21.10;9.75;;;4.10;99.90;;;;;;5015533;28;20170;-85
2021/12/18 09:52:35;;;;;;;22.08;11.07;;;4.20;99.90;;;;;;5039359;28;20170;-85
2021/12/18 09:55:01;;;;;;;19.08;9.75;;;4.20;99.90;;;;;;5029727;28;20182;-85
2021/12/18 09:57:28;;;;;;;19.65;8.95;;;4.30;99.90;;;;;;5013847;28;20233;-87
2021/12/18 09:59:53;;;;;;;12.90;7.72;;;4.10;99.90;;;;;;5037715;28;20177;-87
2021/12/18 10:02:19;;;;;;;15.73;7.87;;;4.10;99.90;;;;;;5014156;28;20191;-86
2021/12/18 10:04:46;;;;;;;13.52;8.07;;;4.20;99.90;;;;;;5035375;28;20286;-86
2021/12/18 10:07:26;;;;;;;21.45;9.52;;;4.10;99.90;;;;;;5024919;28;20166;-84
2021/12/18 10:09:57;;;;;;;16.83;9.80;;;4.20;99.90;;;;;;5045205;28;20685;-85
2021/12/18 10:12:28;;;;;;;16.88;8.50;;;4.30;99.90;;;;;;5033781;28;20184;-84
2021/12/18 10:15:00;;;;;;;15.88;9.07;;;4.40;99.90;;;;;;5033822;28;20190;-86
2021/12/18 10:17:32;;;;;;;18.23;9.25;;;4.40;99.90;;;;;;5038283;28;20208;-85
2021/12/18 10:20:09;;;;;;;15.68;8.20;;;4.50;99.90;;;;;;5044170;28;20185;-87
2021/12/18 10:22:42;;;;;;;17.10;8.77;;;4.70;99.90;;;;;;5031145;28;20173;-83
2021/12/18 10:25:08;;;;;;;17.70;10.32;;;4.80;99.90;;;;;;5032237;28;20202;-85
2021/12/18 10:27:36;;;;;;;20.05;9.70;;;4.80;99.90;;;;;;5030116;28;20178;-84
2021/12/18 10:30:19;;;;;;;21.70;10.63;;;4.70;99.90;;;;;;5015690;28;20186;-85
2021/12/18 10:32:54;;;;;;;18.42;9.90;;;4.60;99.90;;;;;;5005170;28;20178;-86
2021/12/18 10:35:20;;;;;;;16.98;9.10;;;4.60;99.90;;;;;;5028615;28;20185;-87
2021/12/18 10:37:45;;;;;;;15.37;8.47;;;4.70;99.90;;;;;;5026412;28;20839;-84
2021/12/18 10:40:12;;;;;;;17.40;9.80;;;;;;;;;;5014115;28;20213;-85
2021/12/18 10:42:46;;;;;;;17.73;9.20;;;4.70;99.90;;;;;;5003191;28;20194;-87
2021/12/18 10:45:20;;;;;;;21.20;10.73;;;4.70;99.90;;;;;;5010537;28;20580;-86
2021/12/18 10:47:46;;;;;;;19.70;9.57;;;4.80;99.90;;;;;;5003719;28;20177;-85
2021/12/18 10:50:21;;;;;;;16.73;8.87;;;5.00;99.90;;;;;;5028218;28;20178;-86
2021/12/18 10:53:11;;;;;;;19.58;8.35;;;5.00;99.90;;;;;;5010107;28;20203;-85
2021/12/18 10:55:38;;;;;;;16.60;10.02;;;5.10;99.90;;;;;;5031959;28;20239;-85
2021/12/18 10:58:07;;;;;;;20.98;10.77;;;5.10;99.90;;;;;;5026074;28;20266;-87
2021/12/18 11:00:38;;;;;;;16.33;9.82;;;5.10;99.90;;;;;;5025042;28;20201;-85
2021/12/18 11:03:30;;;;;;;16.17;8.48;;;5.10;99.90;;;;;;5022018;28;20762;-86
2021/12/18 11:06:05;;;;;;;18.10;8.90;;;5.10;99.90;;;;;;5026152;28;20752;-87
2021/12/18 11:08:33;;;;;;;13.65;8.77;;;5.10;99.90;;;;;;5026129;28;20176;-87
2021/12/18 11:13:52;;;;;;;34.38;19.58;;;4.90;99.90;;;;;;5021452;28;20285;-87
2021/12/18 11:16:18;;;;;;;23.48;13.55;;;4.80;99.90;;;;;;5023317;28;20196;-85
2021/12/18 11:18:45;;;;;;;17.45;9.00;;;4.70;99.90;;;;;;5013818;28;20201;-86
2021/12/18 11:21:12;;;;;;;15.80;10.98;;;4.80;99.90;;;;;;5006319;28;20192;-86
2021/12/18 11:23:49;;;;;;;16.98;9.73;;;5.90;99.90;;;;;;5033070;28;20221;-85
2021/12/18 11:26:15;;;;;;;18.52;8.95;;;5.00;99.90;;;;;;5010977;28;20280;-85
2021/12/18 11:28:48;;;;;;;16.33;8.73;;;5.00;99.90;;;;;;5008635;28;20250;-85
2021/12/18 11:31:15;;;;;;;15.98;7.18;;;5.00;99.90;;;;;;5019985;28;20459;-84
2021/12/18 11:33:41;;;;;;;15.70;8.35;;;5.00;99.90;;;;;;5030745;28;20202;-84
2021/12/18 11:36:08;;;;;;;20.27;9.93;;;;;;;;;;5029184;28;20181;-86
2021/12/18 11:38:37;;;;;;;26.48;15.35;;;5.00;99.90;;;;;;5003824;28;20447;-86
2021/12/18 11:41:02;;;;;;;18.17;9.77;;;5.10;99.90;;;;;;5005916;28;20589;-86
2021/12/18 11:43:35;;;;;;;19.93;9.47;;;5.10;99.90;;;;;;5025758;28;20197;-86
2021/12/18 11:46:02;;;;;;;16.02;8.75;;;5.10;99.90;;;;;;5028046;28;20601;-85
2021/12/18 11:48:51;;;;;;;19.45;12.50;;;5.10;99.90;;;;;;5027948;28;20292;-86
2021/12/18 11:51:16;;;;;;;21.17;13.20;;;5.10;99.90;;;;;;5027696;28;20276;-85
2021/12/18 11:53:42;;;;;;;27.83;14.83;;;5.10;99.90;;;;;;5028002;28;20293;-85
2021/12/18 11:56:08;;;;;;;19.20;10.63;;;5.10;99.90;;;;;;5029696;28;20178;-85
2021/12/18 11:58:42;;;;;;;18.60;10.20;;;5.10;99.90;;;;;;5027191;28;20182;-84
2021/12/18 12:01:26;;;;;;;25.85;12.70;;;5.10;99.90;;;;;;5016316;28;20676;-85
2021/12/18 12:03:52;;;;;;;17.95;9.75;;;5.10;99.90;;;;;;5011363;28;20213;-85
2021/12/18 12:06:38;;;;;;;21.93;11.70;;;5.20;99.90;;;;;;5027539;28;20289;-85
2021/12/18 12:11:55;;;;;;;21.85;9.23;;;5.20;99.90;;;;;;5020401;28;20182;-85
2021/12/18 12:14:23;;;;;;;19.17;10.30;;;5.20;99.90;;;;;;5006333;28;20202;-84
2021/12/18 12:16:48;;;;;;;20.77;10.85;;;5.10;99.90;;;;;;5018495;28;20189;-85
2021/12/18 12:19:39;;;;;;;20.83;9.13;;;5.10;99.90;;;;;;5012381;28;20190;-86
2021/12/18 12:22:36;;;;;;;18.83;10.07;;;5.20;99.90;;;;;;5019040;28;20225;-86
2021/12/18 12:25:05;;;;;;;27.55;11.75;;;5.20;99.90;;;;;;5030159;28;20771;-85
2021/12/18 12:27:33;;;;;;;31.17;13.75;;;5.20;99.90;;;;;;5019867;28;20175;-86
2021/12/18 12:30:01;;;;;;;22.65;10.20;;;5.20;99.90;;;;;;5012352;28;20600;-86
2021/12/18 12:32:29;;;;;;;26.48;11.57;;;4.90;99.90;;;;;;5024693;28;20174;-86
2021/12/18 12:35:07;;;;;;;17.13;9.02;;;4.90;99.90;;;;;;5013633;28;20624;-84
2021/12/18 12:37:37;;;;;;;22.52;11.05;;;4.90;99.90;;;;;;5003374;28;20185;-86
2021/12/18 12:40:12;;;;;;;26.58;10.98;;;4.90;99.90;;;;;;5019728;28;20452;-86
2021/12/18 12:42:40;;;;;;;22.17;12.00;;;5.00;99.90;;;;;;4999624;28;20185;-85
2021/12/18 12:45:14;;;;;;;17.48;9.85;;;5.00;99.90;;;;;;5013494;28;20669;-84
2021/12/18 12:47:41;;;;;;;21.77;10.88;;;;;;;;;;4980077;28;20445;-84
2021/12/18 12:50:12;;;;;;;22.05;11.38;;;5.00;99.90;;;;;;4987146;28;20241;-83
2021/12/18 12:52:56;;;;;;;17.52;9.55;;;4.70;99.90;;;;;;5030728;28;20212;-83
2021/12/18 12:55:25;;;;;;;21.52;10.93;;;4.70;99.90;;;;;;5015560;28;20185;-82
2021/12/18 12:57:58;;;;;;;24.05;11.10;;;5.00;99.90;;;;;;5030328;28;20269;-84
2021/12/18 13:00:24;;;;;;;20.58;11.45;;;5.00;99.90;;;;;;5023176;28;20182;-85
2021/12/18 13:02:56;;;;;;;20.77;10.73;;;5.00;99.90;;;;;;5010687;28;20201;-85
2021/12/18 13:05:23;;;;;;;24.80;12.02;;;4.90;99.90;;;;;;5016454;28;20197;-85
2021/12/18 13:07:58;;;;;;;19.63;9.38;;;4.80;99.90;;;;;;5005827;28;20182;-86
2021/12/18 13:10:31;;;;;;;22.30;10.90;;;4.70;99.90;;;;;;4999402;28;20178;-84
2021/12/18 13:13:04;;;;;;;20.73;11.10;;;4.30;99.90;;;;;;5019484;28;20212;-84
2021/12/18 13:15:49;;;;;;;22.35;10.85;;;4.30;99.90;;;;;;5003780;28;20178;-86
2021/12/18 13:18:15;;;;;;;23.55;10.63;;;4.30;99.90;;;;;;5026393;28;20202;-86
2021/12/18 13:21:00;;;;;;;22.15;11.15;;;4.40;99.90;;;;;;5020290;28;20189;-84
2021/12/18 13:23:58;;;;;;;32.88;16.15;;;4.50;99.90;;;;;;5020605;28;20211;-86
2021/12/18 13:26:37;;;;;;;19.35;11.07;;;4.50;99.90;;;;;;5016289;28;20206;-85
2021/12/18 13:29:06;;;;;;;24.83;9.77;;;4.70;99.90;;;;;;5007813;28;20181;-85
2021/12/18 13:31:34;;;;;;;19.58;10.68;;;4.90;99.90;;;;;;5023305;28;20264;-84
2021/12/18 13:34:04;;;;;;;20.58;11.00;;;5.10;99.90;;;;;;5029664;28;20263;-84
2021/12/18 13:36:57;;;;;;;18.23;9.55;;;5.20;99.90;;;;;;5010420;28;20178;-85
2021/12/18 13:39:29;;;;;;;22.63;12.10;;;5.10;99.90;;;;;;5009986;28;20340;-84
2021/12/18 13:42:05;;;;;;;22.77;12.32;;;5.10;99.90;;;;;;5028225;28;20181;-85
2021/12/18 13:45:15;;;;;;;23.77;13.10;;;5.10;99.90;;;;;;5028419;28;20264;-85
2021/12/18 13:47:52;;;;;;;21.67;10.27;;;4.90;99.90;;;;;;4925985;28;20764;-85
2021/12/18 13:50:20;;;;;;;16.73;9.18;;;3.40;99.90;;;;;;5013052;28;20198;-85
2021/12/18 13:52:47;;;;;;;21.25;10.98;;;4.80;99.90;;;;;;5024847;28;20881;-84
2021/12/18 13:55:34;;;;;;;18.60;10.63;;;4.70;99.90;;;;;;5004226;28;20249;-84
2021/12/18 13:58:00;;;;;;;16.67;10.35;;;4.70;99.90;;;;;;5019837;28;20221;-85
2021/12/18 14:00:26;;;;;;;17.43;8.63;;;4.70;99.90;;;;;;5004301;28;20280;-85